地図

経路データ

SID SEASON NUMBER BASIN SUBBASIN NAME ISO_TIME NATURE LAT LON WMO_WIND WMO_PRES WMO_AGENCY TRACK_TYPE DIST2LAND LANDFALL IFLAG USA_AGENCY USA_ATCF_ID USA_LAT USA_LON USA_RECORD USA_STATUS USA_WIND USA_PRES USA_SSHS USA_R34_NE USA_R34_SE USA_R34_SW USA_R34_NW USA_R50_NE USA_R50_SE USA_R50_SW USA_R50_NW USA_R64_NE USA_R64_SE USA_R64_SW USA_R64_NW USA_POCI USA_ROCI USA_RMW USA_EYE TOKYO_LAT TOKYO_LON TOKYO_GRADE TOKYO_WIND TOKYO_PRES TOKYO_R50_DIR TOKYO_R50_LONG TOKYO_R50_SHORT TOKYO_R30_DIR TOKYO_R30_LONG TOKYO_R30_SHORT TOKYO_LAND CMA_LAT CMA_LON CMA_CAT CMA_WIND CMA_PRES HKO_LAT HKO_LON HKO_CAT HKO_WIND HKO_PRES NEWDELHI_LAT NEWDELHI_LON NEWDELHI_GRADE NEWDELHI_WIND NEWDELHI_PRES NEWDELHI_CI NEWDELHI_DP NEWDELHI_POCI REUNION_LAT REUNION_LON REUNION_TYPE REUNION_WIND REUNION_PRES REUNION_TNUM REUNION_CI REUNION_RMW REUNION_R34_NE REUNION_R34_SE REUNION_R34_SW REUNION_R34_NW REUNION_R50_NE REUNION_R50_SE REUNION_R50_SW REUNION_R50_NW REUNION_R64_NE REUNION_R64_SE REUNION_R64_SW REUNION_R64_NW BOM_LAT BOM_LON BOM_TYPE BOM_WIND BOM_PRES BOM_TNUM BOM_CI BOM_RMW BOM_R34_NE BOM_R34_SE BOM_R34_SW BOM_R34_NW BOM_R50_NE BOM_R50_SE BOM_R50_SW BOM_R50_NW BOM_R64_NE BOM_R64_SE BOM_R64_SW BOM_R64_NW BOM_ROCI BOM_POCI BOM_EYE BOM_POS_METHOD BOM_PRES_METHOD NADI_LAT NADI_LON NADI_CAT NADI_WIND NADI_PRES WELLINGTON_LAT WELLINGTON_LON WELLINGTON_WIND WELLINGTON_PRES DS824_LAT DS824_LON DS824_STAGE DS824_WIND DS824_PRES TD9636_LAT TD9636_LON TD9636_STAGE TD9636_WIND TD9636_PRES TD9635_LAT TD9635_LON TD9635_WIND TD9635_PRES TD9635_ROCI NEUMANN_LAT NEUMANN_LON NEUMANN_CLASS NEUMANN_WIND NEUMANN_PRES MLC_LAT MLC_LON MLC_CLASS MLC_WIND MLC_PRES USA_GUST BOM_GUST BOM_GUST_PER REUNION_GUST REUNION_GUST_PER USA_SEAHGT USA_SEARAD_NE USA_SEARAD_SE USA_SEARAD_SW USA_SEARAD_NW STORM_SPEED STORM_DIR
1893248N18125 1893 40 WP MM NOT_NAMED 1893-09-04 16:00:00 NR 17.7000 125.000 main 276 266 __________O___ -1 17.7000 125.000 3 2 296
1893248N18125 1893 40 WP MM NOT_NAMED 1893-09-04 18:00:00 NR 17.7302 124.947 main 266 259 __________P___ -1 17.7302 124.947 3 2 300
1893248N18125 1893 40 WP MM NOT_NAMED 1893-09-04 21:00:00 NR 17.7829 124.843 main 259 250 __________P___ -1 17.7829 124.843 3 3 296
1893248N18125 1893 40 WP MM NOT_NAMED 1893-09-05 00:00:00 NR 17.8548 124.678 main 252 224 __________P___ -1 17.8548 124.678 3 4 293
1893248N18125 1893 40 WP MM NOT_NAMED 1893-09-05 03:00:00 NR 17.9572 124.416 main 224 214 __________P___ -1 17.9572 124.416 3 6 292
1893248N18125 1893 40 WP MM NOT_NAMED 1893-09-05 04:00:00 NR 18.0000 124.300 main 214 180 __________O___ -1 18.0000 124.300 4 8 291
1893248N18125 1893 40 WP MM NOT_NAMED 1893-09-05 06:00:00 NR 18.0996 124.022 main 180 126 __________P___ -1 18.0996 124.022 4 10 290
1893248N18125 1893 40 WP MM NOT_NAMED 1893-09-05 09:00:00 NR 18.2741 123.517 main 126 73 __________P___ -1 18.2741 123.517 4 11 290
1893248N18125 1893 40 WP MM NOT_NAMED 1893-09-05 12:00:00 NR 18.4617 122.953 main 74 24 __________P___ -1 18.4617 122.953 4 11 289
1893248N18125 1893 40 WP MM NOT_NAMED 1893-09-05 15:00:00 NR 18.6437 122.382 main 24 33 __________P___ -1 18.6437 122.382 4 11 288
1893248N18125 1893 40 WP MM NOT_NAMED 1893-09-05 16:00:00 NR 18.7000 122.200 main 33 33 __________O___ -1 18.7000 122.200 4 10 288
1893248N18125 1893 40 WP MM NOT_NAMED 1893-09-05 18:00:00 NR 18.7995 121.885 main 49 44 __________P___ -1 18.7995 121.885 4 9 288
1893248N18125 1893 40 WP MM NOT_NAMED 1893-09-05 21:00:00 NR 18.9366 121.432 main 44 44 __________P___ -1 18.9366 121.432 4 9 287
1893248N18125 1893 40 WP MM NOT_NAMED 1893-09-06 00:00:00 NR 19.0592 120.991 main 56 55 __________P___ -1 19.0592 120.991 4 9 285
1893248N18125 1893 40 WP MM NOT_NAMED 1893-09-06 03:00:00 NR 19.1673 120.550 main 74 74 __________P___ -1 19.1673 120.550 4 9 284
1893248N18125 1893 40 WP MM NOT_NAMED 1893-09-06 04:00:00 NR 19.2000 120.400 main 79 79 __________O___ -1 19.2000 120.400 4 9 282
1893248N18125 1893 40 WP MM NOT_NAMED 1893-09-06 06:00:00 NR 19.2613 120.084 main 107 107 __________P___ -1 19.2613 120.084 4 9 281
1893248N18125 1893 40 WP MM NOT_NAMED 1893-09-06 09:00:00 NR 19.3408 119.603 main 145 145 __________P___ -1 19.3408 119.603 4 9 279
1893248N18125 1893 40 WP MM NOT_NAMED 1893-09-06 12:00:00 NR 19.4107 119.123 main 193 193 __________P___ -1 19.4107 119.123 4 9 279
1893248N18125 1893 40 WP MM NOT_NAMED 1893-09-06 15:00:00 NR 19.4774 118.653 main 234 243 __________P___ -1 19.4774 118.653 4 9 279
1893248N18125 1893 40 WP MM NOT_NAMED 1893-09-06 16:00:00 NR 19.5000 118.500 main 252 252 __________O___ -1 19.5000 118.500 4 9 278
1893248N18125 1893 40 WP MM NOT_NAMED 1893-09-06 18:00:00 NR 19.5421 118.182 main 280 280 __________P___ -1 19.5421 118.182 4 9 278
1893248N18125 1893 40 WP MM NOT_NAMED 1893-09-06 21:00:00 NR 19.6053 117.716 main 333 333 __________P___ -1 19.6053 117.716 4 9 279
1893248N18125 1893 40 WP MM NOT_NAMED 1893-09-07 00:00:00 NR 19.6765 117.285 main 367 343 __________P___ -1 19.6765 117.285 4 8 282
1893248N18125 1893 40 WP MM NOT_NAMED 1893-09-07 03:00:00 NR 19.7650 116.909 main 343 340 __________P___ -1 19.7650 116.909 4 7 285
1893248N18125 1893 40 WP MM NOT_NAMED 1893-09-07 04:00:00 NR 19.8000 116.800 main 340 323 __________O___ -1 19.8000 116.800 4 6 292
1893248N18125 1893 40 WP MM NOT_NAMED 1893-09-07 06:00:00 NR 19.8825 116.605 main 323 308 __________P___ -1 19.8825 116.605 4 6 299
1893248N18125 1893 40 WP MM NOT_NAMED 1893-09-07 09:00:00 NR 20.0255 116.368 main 308 282 __________P___ -1 20.0255 116.368 4 5 307
1893248N18125 1893 40 WP MM NOT_NAMED 1893-09-07 12:00:00 NR 20.1833 116.186 main 282 269 __________P___ -1 20.1833 116.186 4 4 316
1893248N18125 1893 40 WP MM NOT_NAMED 1893-09-07 15:00:00 NR 20.3462 116.042 main 269 258 __________P___ -1 20.3462 116.042 4 4 321
1893248N18125 1893 40 WP MM NOT_NAMED 1893-09-07 16:00:00 NR 20.4000 116.000 main 258 246 __________O___ -1 20.4000 116.000 4 3 314
1893248N18125 1893 40 WP MM NOT_NAMED 1893-09-07 18:00:00 NR 20.4684 115.910 main 246 231 __________P___ -1 20.4684 115.910 4 3 312
1893248N18125 1893 40 WP MM NOT_NAMED 1893-09-07 21:00:00 NR 20.5705 115.801 main 231 217 __________P___ -1 20.5705 115.801 4 3 322
1893248N18125 1893 40 WP MM NOT_NAMED 1893-09-08 00:00:00 NR 20.7051 115.711 main 217 192 __________P___ -1 20.7051 115.711 4 4 334
1893248N18125 1893 40 WP MM NOT_NAMED 1893-09-08 03:00:00 NR 20.9097 115.628 main 192 182 __________P___ -1 20.9097 115.628 4 5 340
1893248N18125 1893 40 WP MM NOT_NAMED 1893-09-08 04:00:00 NR 21.0000 115.600 main 182 157 __________O___ -1 21.0000 115.600 4 7 343
1893248N18125 1893 40 WP MM NOT_NAMED 1893-09-08 06:00:00 NR 21.2420 115.523 main 157 103 __________P___ -1 21.2420 115.523 4 8 345
1893248N18125 1893 40 WP MM NOT_NAMED 1893-09-08 09:00:00 NR 21.6809 115.408 main 103 53 __________P___ -1 21.6809 115.408 4 10 347
1893248N18125 1893 40 WP MM NOT_NAMED 1893-09-08 12:00:00 NR 22.1665 115.302 main 53 15 __________P___ -1 22.1665 115.302 4 10 350
1893248N18125 1893 40 WP MM NOT_NAMED 1893-09-08 15:00:00 NR 22.6487 115.220 main 15 0 __________P___ -1 22.6487 115.220 4 10 352
1893248N18125 1893 40 WP MM NOT_NAMED 1893-09-08 16:00:00 NR 22.8000 115.200 main 0 0 __________O___ -1 22.8000 115.200 4 9 356
1893248N18125 1893 40 WP MM NOT_NAMED 1893-09-08 18:00:00 NR 23.0808 115.172 main 0 0 __________P___ -1 23.0808 115.172 4 8 357
1893248N18125 1893 40 WP MM NOT_NAMED 1893-09-08 21:00:00 NR 23.4551 115.158 main 0 0 __________P___ -1 23.4551 115.158 4 7 360
1893248N18125 1893 40 WP MM NOT_NAMED 1893-09-09 00:00:00 NR 23.7885 115.168 main 0 0 __________P___ -1 23.7885 115.168 4 6 4
1893248N18125 1893 40 WP MM NOT_NAMED 1893-09-09 03:00:00 NR 24.0988 115.191 main 0 0 __________P___ -1 24.0988 115.191 4 6 5
1893248N18125 1893 40 WP MM NOT_NAMED 1893-09-09 04:00:00 NR 24.2000 115.200 main 0 __________O___ -1 24.2000 115.200 4 6 15

デジタル台風データ・検索

IBTrACS Databaseについて

本データベースは、米国NOAAが公開する1842年以降の世界の熱帯低気圧のベストトラックデータアーカイブInternational Best Track Archive for Climate Stewardship (IBTrACS)を、ウェブで閲覧しやすい形式に変換したものです。

最終更新日:2021-12-08